createdAt,value
2023-04-28T00:01:05.931Z,98765.13
2023-04-28T00:06:08.422Z,98755.63
2023-04-28T00:11:11.529Z,98666.72
2023-04-28T00:16:13.914Z,98737.69
2023-04-28T00:21:18.254Z,98726.69
2023-04-28T00:26:21.278Z,98668.66
2023-04-28T00:31:24.439Z,98694.69
2023-04-28T00:36:27.122Z,98680.03
2023-04-28T00:41:29.623Z,98725.94
2023-04-28T00:46:34.324Z,98750.19
2023-04-28T00:51:36.738Z,98693.13
2023-04-28T00:56:39.165Z,98732.91
2023-04-28T01:01:41.719Z,98728.63
2023-04-28T01:06:46.257Z,98732.22
2023-04-28T01:11:48.843Z,98634.44
2023-04-28T01:17:10.894Z,98665.66
2023-04-28T01:22:16.996Z,98683.84
2023-04-28T01:27:20.030Z,98736.66
2023-04-28T01:32:22.398Z,98746.28
2023-04-28T01:37:24.860Z,98750.63
2023-04-28T01:42:29.317Z,98594.81
2023-04-28T01:47:32.300Z,98743.81
2023-04-28T01:52:34.720Z,98699.56
2023-04-28T01:57:40.502Z,98743.72
2023-04-28T02:02:43.022Z,98705.66
2023-04-28T02:07:45.758Z,98629.56
2023-04-28T02:12:48.067Z,98740.28
2023-04-28T02:17:50.640Z,98606.25
2023-04-28T02:22:52.986Z,98722.91
2023-04-28T02:27:55.433Z,98694.50
2023-04-28T02:32:57.802Z,98726.59
2023-04-28T02:38:01.084Z,98700.59
2023-04-28T02:43:03.500Z,98741.25
2023-04-28T02:48:06.009Z,98717.88
2023-04-28T02:53:08.339Z,98666.91
2023-04-28T02:58:10.685Z,98711.03
2023-04-28T03:03:13.619Z,98646.09
2023-04-28T03:08:16.400Z,98709.25
2023-04-28T03:13:18.718Z,98743.88
2023-04-28T03:18:22.847Z,98771.56
2023-04-28T03:23:25.266Z,98755.84
2023-04-28T03:28:27.882Z,98684.06
2023-04-28T03:33:30.429Z,98776.72
2023-04-28T03:38:35.353Z,98794.88
2023-04-28T03:43:37.794Z,98774.88
2023-04-28T03:48:56.608Z,98777.41
2023-04-28T03:54:00.001Z,98797.22
2023-04-28T03:59:02.565Z,98792.72
2023-04-28T04:04:05.861Z,98791.75
2023-04-28T04:09:08.505Z,98789.84
2023-04-28T04:14:11.407Z,98711.84
2023-04-28T04:19:14.391Z,98741.91
2023-04-28T04:24:18.327Z,98754.66
2023-04-28T04:29:21.094Z,98706.94
2023-04-28T04:34:23.747Z,98765.53
2023-04-28T04:39:27.295Z,98699.81
2023-04-28T04:44:29.675Z,98725.59
2023-04-28T04:49:32.608Z,98747.25
2023-04-28T04:54:34.940Z,98813.97
2023-04-28T04:59:37.869Z,98832.13
2023-04-28T05:04:45.332Z,98590.88
2023-04-28T05:09:50.052Z,98755.03
2023-04-28T05:14:52.609Z,98725.53
2023-04-28T05:19:56.872Z,98777.75
2023-04-28T05:25:00.068Z,98788.03
2023-04-28T05:30:02.580Z,98791.75
2023-04-28T05:35:07.231Z,98868.78
2023-04-28T05:40:10.556Z,98872.22
2023-04-28T05:45:15.979Z,98764.97
2023-04-28T05:50:21.392Z,98838.47
2023-04-28T05:55:29.709Z,98797.81
2023-04-28T06:00:40.301Z,98828.81
2023-04-28T06:05:44.063Z,98801.97
2023-04-28T06:10:48.519Z,98773.41
2023-04-28T06:15:53.002Z,98853.91
2023-04-28T06:20:57.736Z,98801.97
2023-04-28T06:26:00.918Z,98835.75
2023-04-28T06:31:03.441Z,98833.94
2023-04-28T06:36:06.283Z,98833.06
2023-04-28T06:41:08.773Z,98786.06
2023-04-28T06:46:14.174Z,98811.94
2023-04-28T06:51:18.165Z,98740.78
2023-04-28T06:56:20.808Z,98812.34
2023-04-28T07:01:24.058Z,98810.19
2023-04-28T07:06:27.924Z,98827.09
2023-04-28T07:11:30.542Z,98783.56
2023-04-28T07:16:32.977Z,98712.34
2023-04-28T07:21:35.419Z,98786.94
2023-04-28T07:26:37.754Z,98816.81
2023-04-28T07:31:40.252Z,98823.66
2023-04-28T07:36:42.893Z,98863.56
2023-04-28T07:41:45.371Z,98818.59
2023-04-28T07:46:47.801Z,98861.06
2023-04-28T07:51:53.970Z,98827.47
2023-04-28T07:56:58.432Z,98868.16
2023-04-28T08:02:01.050Z,98851.84
2023-04-28T08:07:04.020Z,98834.47
2023-04-28T08:12:06.413Z,98857.75
2023-04-28T08:17:09.740Z,98745.38
2023-04-28T08:22:12.863Z,98766.16
2023-04-28T08:27:15.285Z,98806.72
2023-04-28T08:32:17.903Z,98823.94
2023-04-28T08:37:20.617Z,98826.69
2023-04-28T08:42:23.095Z,98794.66
2023-04-28T08:47:38.895Z,98866.34
2023-04-28T08:52:42.972Z,98865.53
2023-04-28T08:57:55.543Z,98822.44
2023-04-28T09:02:58.331Z,98859.59
2023-04-28T09:08:02.993Z,98857.03
2023-04-28T09:13:05.680Z,98866.72
2023-04-28T09:18:09.021Z,98831.22
2023-04-28T09:23:19.140Z,98791.56
2023-04-28T09:28:22.578Z,98852.81
2023-04-28T09:33:25.316Z,98845.81
2023-04-28T09:38:27.812Z,98691.16
2023-04-28T09:43:36.593Z,98878.66
2023-04-28T09:48:39.208Z,98834.63
2023-04-28T09:53:41.850Z,98801.84
2023-04-28T09:58:45.402Z,98846.97
2023-04-28T10:03:49.721Z,98849.66
2023-04-28T10:08:52.461Z,98892.09
2023-04-28T10:13:55.508Z,98898.22
2023-04-28T10:18:58.267Z,98903.47
2023-04-28T10:24:10.917Z,98898.13
2023-04-28T10:29:13.734Z,98801.19
2023-04-28T10:34:23.400Z,98897.00
2023-04-28T10:39:25.759Z,98839.09
2023-04-28T10:44:31.284Z,98896.91
2023-04-28T10:50:12.413Z,98759.28
2023-04-28T10:55:36.815Z,98899.00
2023-04-28T11:00:40.434Z,98844.38
2023-04-28T11:06:23.186Z,98900.22
2023-04-28T11:11:39.300Z,98844.00
2023-04-28T11:16:51.193Z,98906.38
2023-04-28T11:21:56.472Z,98769.44
2023-04-28T11:27:02.894Z,98820.81
2023-04-28T11:32:06.808Z,98914.66
2023-04-28T11:37:28.234Z,98920.03
2023-04-28T11:42:34.150Z,98917.75
2023-04-28T11:47:37.185Z,98877.09
2023-04-28T11:52:51.747Z,98929.03
2023-04-28T11:58:18.425Z,98939.63
2023-04-28T12:03:20.944Z,98931.38
2023-04-28T12:08:30.176Z,98930.66
2023-04-28T12:13:32.646Z,98900.44
2023-04-28T12:18:36.772Z,98907.53
2023-04-28T12:23:40.120Z,98906.22
2023-04-28T12:28:42.759Z,98956.84
2023-04-28T12:33:45.276Z,98949.56
2023-04-28T12:38:50.789Z,98883.31
2023-04-28T12:43:53.944Z,98891.28
2023-04-28T12:48:58.091Z,98944.28
2023-04-28T12:54:00.451Z,98971.19
2023-04-28T12:59:03.933Z,98973.00
2023-04-28T13:04:07.672Z,98921.16
2023-04-28T13:09:17.025Z,98933.47
2023-04-28T13:14:37.936Z,98859.91
2023-04-28T13:19:41.010Z,98961.38
2023-04-28T13:24:43.796Z,98908.72
2023-04-28T13:29:46.420Z,98971.19
2023-04-28T13:34:49.158Z,98967.78
2023-04-28T13:39:51.594Z,98993.81
2023-04-28T13:44:54.059Z,98999.13
2023-04-28T13:49:56.498Z,98974.03
2023-04-28T13:54:58.836Z,98941.22
2023-04-28T14:00:02.454Z,98903.28
2023-04-28T14:05:10.534Z,98991.72
2023-04-28T14:10:13.015Z,98910.41
2023-04-28T14:15:16.535Z,98955.56
2023-04-28T14:20:19.011Z,99005.19
2023-04-28T14:25:21.886Z,99006.13
2023-04-28T14:30:24.957Z,98984.53
2023-04-28T14:35:27.579Z,98942.00
2023-04-28T14:40:29.982Z,98959.41
2023-04-28T14:45:32.587Z,98878.97
2023-04-28T14:50:35.407Z,99054.31
2023-04-28T14:55:37.878Z,99053.44
2023-04-28T15:00:40.448Z,98980.53
2023-04-28T15:05:44.406Z,98895.59
2023-04-28T15:10:46.978Z,98976.22
2023-04-28T15:15:51.267Z,99050.84
2023-04-28T15:20:55.873Z,98987.59
2023-04-28T15:25:59.994Z,98985.00
2023-04-28T15:31:03.384Z,98891.38
2023-04-28T15:36:06.085Z,99052.78
2023-04-28T15:41:09.545Z,99059.00
2023-04-28T15:46:12.496Z,99071.28
2023-04-28T15:51:14.892Z,99044.38
2023-04-28T15:56:19.646Z,99078.25
2023-04-28T16:01:23.025Z,99067.84
2023-04-28T16:06:26.024Z,99041.91
2023-04-28T16:11:30.031Z,98966.41
2023-04-28T16:16:32.379Z,98932.53
2023-04-28T16:21:35.868Z,99034.97
2023-04-28T16:26:38.270Z,98981.19
2023-04-28T16:31:40.833Z,99071.53
2023-04-28T16:36:43.254Z,99121.09
2023-04-28T16:41:47.909Z,99090.72
2023-04-28T16:46:50.306Z,99081.19
2023-04-28T16:52:04.349Z,99119.38
2023-04-28T16:57:06.958Z,99126.41
2023-04-28T17:02:09.352Z,99089.91
2023-04-28T17:07:11.835Z,99080.41
2023-04-28T17:12:15.610Z,99085.66
2023-04-28T17:17:18.516Z,99119.59
2023-04-28T17:22:21.093Z,99071.78
2023-04-28T17:27:24.193Z,99123.09
2023-04-28T17:32:27.581Z,99056.16
2023-04-28T17:37:33.963Z,99147.47
2023-04-28T17:42:36.479Z,99040.47
2023-04-28T17:47:38.970Z,99099.59
2023-04-28T17:52:43.958Z,99159.59
2023-04-28T17:57:46.657Z,99123.91
2023-04-28T18:02:52.863Z,99073.47
2023-04-28T18:08:04.373Z,99120.44
2023-04-28T18:13:09.175Z,99089.09
2023-04-28T18:18:11.919Z,99110.84
2023-04-28T18:23:14.624Z,99148.28
2023-04-28T18:28:17.182Z,99137.84
2023-04-28T18:33:22.855Z,99032.53
2023-04-28T18:38:26.461Z,99173.41
2023-04-28T18:43:28.981Z,99149.94
2023-04-28T18:48:32.327Z,99149.91
2023-04-28T18:53:36.240Z,99109.00
2023-04-28T18:58:41.110Z,99041.16
2023-04-28T19:03:44.234Z,99156.00
2023-04-28T19:08:46.722Z,99078.53
2023-04-28T19:13:51.969Z,98943.75
2023-04-28T19:18:54.723Z,98972.44
2023-04-28T19:24:04.793Z,99043.66
2023-04-28T19:29:07.226Z,99104.50
2023-04-28T19:34:15.618Z,99128.84
2023-04-28T19:39:18.160Z,99148.00
2023-04-28T19:44:20.930Z,99094.84
2023-04-28T19:49:23.487Z,99152.28
2023-04-28T19:54:26.441Z,99129.59
2023-04-28T19:59:29.161Z,99146.97
2023-04-28T20:04:31.833Z,99091.22
2023-04-28T20:09:38.149Z,99166.13
2023-04-28T20:14:40.617Z,99092.09
2023-04-28T20:19:44.633Z,99053.81
2023-04-28T20:24:47.385Z,99034.63
2023-04-28T20:29:50.139Z,99092.03
2023-04-28T20:34:52.729Z,99101.53
2023-04-28T20:39:57.882Z,99137.25
2023-04-28T20:45:00.338Z,99012.72
2023-04-28T20:50:03.571Z,99103.19
2023-04-28T20:55:06.894Z,99054.44
2023-04-28T21:00:10.978Z,99116.19
2023-04-28T21:05:13.518Z,99109.19
2023-04-28T21:10:15.841Z,99159.72
2023-04-28T21:15:18.260Z,99137.88
2023-04-28T21:20:20.919Z,99150.09
2023-04-28T21:25:23.364Z,99045.56
2023-04-28T21:30:27.099Z,99169.91
2023-04-28T21:35:29.477Z,99162.09
2023-04-28T21:40:31.856Z,99148.16
2023-04-28T21:45:34.288Z,99165.50
2023-04-28T21:50:37.713Z,99130.75
2023-04-28T21:55:40.303Z,99061.72
2023-04-28T22:00:45.204Z,99104.47
2023-04-28T22:05:47.533Z,99041.75
2023-04-28T22:10:49.927Z,99096.56
2023-04-28T22:15:52.602Z,99155.81
2023-04-28T22:20:54.963Z,99087.00
2023-04-28T22:26:00.223Z,99122.63
2023-04-28T22:31:02.563Z,99136.63
2023-04-28T22:36:05.555Z,99103.53
2023-04-28T22:41:07.875Z,99023.41
2023-04-28T22:46:10.608Z,98989.47
2023-04-28T22:51:13.077Z,99049.53
2023-04-28T22:56:16.084Z,99032.91
2023-04-28T23:01:18.534Z,99139.94
2023-04-28T23:06:20.873Z,99025.91
2023-04-28T23:11:24.541Z,99010.25
2023-04-28T23:16:27.101Z,99089.53
2023-04-28T23:21:29.490Z,98917.88
2023-04-28T23:26:31.840Z,99078.91
2023-04-28T23:31:40.013Z,98913.31
2023-04-28T23:36:42.579Z,98814.00
2023-04-28T23:41:44.964Z,99127.50
2023-04-28T23:46:49.501Z,99092.59
2023-04-28T23:51:52.060Z,99106.31
2023-04-28T23:56:56.549Z,98967.81
